sensor_id;sensor_type;location;lat;lon;timestamp;pressure;altitude;pressure_sealevel;temperature;humidity
56568;BME280;42456;49.956;20.004;2022-10-16T00:01:17;98531.64;;;12.56;74.98
56568;BME280;42456;49.956;20.004;2022-10-16T00:03:46;98537.94;;;12.60;75.04
56568;BME280;42456;49.956;20.004;2022-10-16T00:06:15;98526.92;;;12.59;75.23
56568;BME280;42456;49.956;20.004;2022-10-16T00:08:42;98526.01;;;12.61;75.40
56568;BME280;42456;49.956;20.004;2022-10-16T00:11:19;98531.98;;;12.61;75.49
56568;BME280;42456;49.956;20.004;2022-10-16T00:13:44;98534.69;;;12.61;75.53
56568;BME280;42456;49.956;20.004;2022-10-16T00:16:14;98538.14;;;12.61;75.74
56568;BME280;42456;49.956;20.004;2022-10-16T00:18:41;98545.69;;;12.62;75.83
56568;BME280;42456;49.956;20.004;2022-10-16T00:21:14;98538.73;;;12.61;75.62
56568;BME280;42456;49.956;20.004;2022-10-16T00:23:39;98540.63;;;12.60;75.76
56568;BME280;42456;49.956;20.004;2022-10-16T00:26:08;98544.67;;;12.60;75.81
56568;BME280;42456;49.956;20.004;2022-10-16T00:28:36;98546.83;;;12.61;75.67
56568;BME280;42456;49.956;20.004;2022-10-16T00:31:06;98545.48;;;12.61;76.00
56568;BME280;42456;49.956;20.004;2022-10-16T00:33:34;98548.17;;;12.61;76.08
56568;BME280;42456;49.956;20.004;2022-10-16T00:36:02;98549.73;;;12.62;76.09
56568;BME280;42456;49.956;20.004;2022-10-16T00:38:30;98549.86;;;12.59;76.23
56568;BME280;42456;49.956;20.004;2022-10-16T00:40:56;98563.23;;;12.62;76.28
56568;BME280;42456;49.956;20.004;2022-10-16T00:46:19;98552.98;;;12.61;76.38
56568;BME280;42456;49.956;20.004;2022-10-16T00:51:41;98569.64;;;12.63;76.44
56568;BME280;42456;49.956;20.004;2022-10-16T00:54:15;98568.29;;;12.63;76.56
56568;BME280;42456;49.956;20.004;2022-10-16T00:56:50;98576.39;;;12.63;76.64
56568;BME280;42456;49.956;20.004;2022-10-16T00:59:23;98578.53;;;12.64;76.71
56568;BME280;42456;49.956;20.004;2022-10-16T01:01:52;98576.60;;;12.64;76.76
56568;BME280;42456;49.956;20.004;2022-10-16T01:04:19;98571.33;;;12.62;77.04
56568;BME280;42456;49.956;20.004;2022-10-16T01:10:06;98566.73;;;12.62;77.24
56568;BME280;42456;49.956;20.004;2022-10-16T01:12:50;98574.92;;;12.66;77.07
56568;BME280;42456;49.956;20.004;2022-10-16T01:15:46;98576.05;;;12.65;77.16
56568;BME280;42456;49.956;20.004;2022-10-16T01:18:07;98568.75;;;12.65;77.45
56568;BME280;42456;49.956;20.004;2022-10-16T01:20:47;98568.75;;;12.65;77.45
56568;BME280;42456;49.956;20.004;2022-10-16T01:26:35;98567.95;;;12.65;77.42
56568;BME280;42456;49.956;20.004;2022-10-16T01:29:22;98568.97;;;12.66;77.43
56568;BME280;42456;49.956;20.004;2022-10-16T01:32:15;98567.29;;;12.68;77.53
56568;BME280;42456;49.956;20.004;2022-10-16T01:34:45;98569.19;;;12.67;77.53
56568;BME280;42456;49.956;20.004;2022-10-16T01:37:15;98576.95;;;12.69;77.68
56568;BME280;42456;49.956;20.004;2022-10-16T01:39:45;98569.19;;;12.67;77.70
56568;BME280;42456;49.956;20.004;2022-10-16T01:42:15;98575.05;;;12.69;77.84
56568;BME280;42456;49.956;20.004;2022-10-16T01:44:45;98578.30;;;12.69;77.91
56568;BME280;42456;49.956;20.004;2022-10-16T01:47:14;98573.57;;;12.66;77.82
56568;BME280;42456;49.956;20.004;2022-10-16T01:49:42;98583.95;;;12.70;78.00
56568;BME280;42456;49.956;20.004;2022-10-16T01:52:17;98582.47;;;12.66;78.00
56568;BME280;42456;49.956;20.004;2022-10-16T01:54:43;98589.77;;;12.72;78.08
56568;BME280;42456;49.956;20.004;2022-10-16T01:57:13;98589.01;;;12.71;78.16
56568;BME280;42456;49.956;20.004;2022-10-16T01:59:46;98594.06;;;12.73;78.22
56568;BME280;42456;49.956;20.004;2022-10-16T02:02:15;98592.72;;;12.73;78.31
56568;BME280;42456;49.956;20.004;2022-10-16T02:04:46;98594.84;;;12.73;78.13
56568;BME280;42456;49.956;20.004;2022-10-16T02:07:15;98598.33;;;12.74;78.37
56568;BME280;42456;49.956;20.004;2022-10-16T02:09:42;98599.13;;;12.74;78.21
56568;BME280;42456;49.956;20.004;2022-10-16T02:12:22;98599.13;;;12.74;78.21
56568;BME280;42456;49.956;20.004;2022-10-16T02:14:41;98602.05;;;12.75;78.47
56568;BME280;42456;49.956;20.004;2022-10-16T02:17:13;98597.87;;;12.72;78.49
56568;BME280;42456;49.956;20.004;2022-10-16T02:19:44;98606.89;;;12.76;78.56
56568;BME280;42456;49.956;20.004;2022-10-16T02:22:16;98607.66;;;12.76;78.60
56568;BME280;42456;49.956;20.004;2022-10-16T02:30:38;98603.28;;;12.78;78.81
56568;BME280;42456;49.956;20.004;2022-10-16T02:33:13;98600.36;;;12.77;78.86
56568;BME280;42456;49.956;20.004;2022-10-16T02:35:41;98595.19;;;12.78;78.92
56568;BME280;42456;49.956;20.004;2022-10-16T02:38:10;98595.52;;;12.76;78.99
56568;BME280;42456;49.956;20.004;2022-10-16T02:40:37;98598.22;;;12.76;79.04
56568;BME280;42456;49.956;20.004;2022-10-16T02:43:05;98590.70;;;12.76;79.06
56568;BME280;42456;49.956;20.004;2022-10-16T02:45:32;98600.15;;;12.76;79.08
56568;BME280;42456;49.956;20.004;2022-10-16T02:47:58;98598.33;;;12.74;79.09
56568;BME280;42456;49.956;20.004;2022-10-16T02:50:25;98585.72;;;12.66;79.03
56568;BME280;42456;49.956;20.004;2022-10-16T02:52:51;98599.55;;;12.70;79.04
56568;BME280;42456;49.956;20.004;2022-10-16T02:55:18;98591.58;;;12.68;78.94
56568;BME280;42456;49.956;20.004;2022-10-16T02:57:44;98595.27;;;12.63;78.83
56568;BME280;42456;49.956;20.004;2022-10-16T03:00:13;98589.20;;;12.60;78.81
56568;BME280;42456;49.956;20.004;2022-10-16T03:02:41;98598.84;;;12.55;78.83
56568;BME280;42456;49.956;20.004;2022-10-16T03:05:08;98601.98;;;12.51;78.82
56568;BME280;42456;49.956;20.004;2022-10-16T03:07:35;98605.13;;;12.47;78.99
56568;BME280;42456;49.956;20.004;2022-10-16T03:10:01;98612.76;;;12.45;79.00
56568;BME280;42456;49.956;20.004;2022-10-16T03:12:29;98610.39;;;12.44;79.12
56568;BME280;42456;49.956;20.004;2022-10-16T03:14:56;98597.78;;;12.42;79.20
56568;BME280;42456;49.956;20.004;2022-10-16T03:17:23;98605.99;;;12.39;79.21
56568;BME280;42456;49.956;20.004;2022-10-16T03:19:51;98603.84;;;12.39;79.25
56568;BME280;42456;49.956;20.004;2022-10-16T03:22:17;98607.13;;;12.38;79.32
56568;BME280;42456;49.956;20.004;2022-10-16T03:24:44;98601.73;;;12.38;79.35
56568;BME280;42456;49.956;20.004;2022-10-16T03:27:10;98600.13;;;12.37;79.42
56568;BME280;42456;49.956;20.004;2022-10-16T03:29:36;98597.87;;;12.33;79.25
56568;BME280;42456;49.956;20.004;2022-10-16T03:32:03;98597.87;;;12.33;79.25
56568;BME280;42456;49.956;20.004;2022-10-16T03:34:29;98603.83;;;12.33;79.32
56568;BME280;42456;49.956;20.004;2022-10-16T03:36:56;98603.14;;;12.30;79.34
56568;BME280;42456;49.956;20.004;2022-10-16T03:39:22;98604.59;;;12.27;79.28
56568;BME280;42456;49.956;20.004;2022-10-16T03:41:49;98617.61;;;12.25;79.26
56568;BME280;42456;49.956;20.004;2022-10-16T03:44:15;98611.53;;;12.22;79.28
56568;BME280;42456;49.956;20.004;2022-10-16T03:46:41;98626.70;;;12.21;79.23
56568;BME280;42456;49.956;20.004;2022-10-16T03:49:08;98627.60;;;12.19;79.26
56568;BME280;42456;49.956;20.004;2022-10-16T03:51:34;98633.08;;;12.16;79.23
56568;BME280;42456;49.956;20.004;2022-10-16T03:54:00;98632.06;;;12.15;79.00
56568;BME280;42456;49.956;20.004;2022-10-16T03:56:27;98636.76;;;12.12;78.90
56568;BME280;42456;49.956;20.004;2022-10-16T03:58:53;98636.87;;;12.09;79.12
56568;BME280;42456;49.956;20.004;2022-10-16T04:01:19;98650.20;;;12.06;79.06
56568;BME280;42456;49.956;20.004;2022-10-16T04:03:46;98647.40;;;12.02;78.93
56568;BME280;42456;49.956;20.004;2022-10-16T04:06:12;98649.73;;;11.98;78.84
56568;BME280;42456;49.956;20.004;2022-10-16T04:08:38;98645.03;;;11.86;78.66
56568;BME280;42456;49.956;20.004;2022-10-16T04:11:05;98654.91;;;11.82;78.85
56568;BME280;42456;49.956;20.004;2022-10-16T04:13:31;98654.91;;;11.82;78.85
56568;BME280;42456;49.956;20.004;2022-10-16T04:15:57;98661.33;;;11.69;78.71
56568;BME280;42456;49.956;20.004;2022-10-16T04:18:24;98665.59;;;11.70;78.88
56568;BME280;42456;49.956;20.004;2022-10-16T04:20:52;98665.59;;;11.70;78.88
56568;BME280;42456;49.956;20.004;2022-10-16T04:23:20;98666.80;;;11.67;78.81
56568;BME280;42456;49.956;20.004;2022-10-16T04:25:48;98660.16;;;11.64;78.88
56568;BME280;42456;49.956;20.004;2022-10-16T04:28:14;98656.67;;;11.64;78.99
56568;BME280;42456;49.956;20.004;2022-10-16T04:30:41;98662.31;;;11.65;79.12
56568;BME280;42456;49.956;20.004;2022-10-16T04:33:09;98653.75;;;11.63;79.37
56568;BME280;42456;49.956;20.004;2022-10-16T04:35:35;98659.14;;;11.63;79.29
56568;BME280;42456;49.956;20.004;2022-10-16T04:38:01;98661.03;;;11.62;79.42
56568;BME280;42456;49.956;20.004;2022-10-16T04:40:28;98641.08;;;11.55;79.49
56568;BME280;42456;49.956;20.004;2022-10-16T04:42:54;98661.58;;;11.62;79.54
56568;BME280;42456;49.956;20.004;2022-10-16T04:45:20;98662.38;;;11.62;79.56
56568;BME280;42456;49.956;20.004;2022-10-16T04:47:47;98660.78;;;11.61;79.61
56568;BME280;42456;49.956;20.004;2022-10-16T04:50:13;98660.56;;;11.60;79.58
56568;BME280;42456;49.956;20.004;2022-10-16T04:52:40;98653.58;;;11.59;79.52
56568;BME280;42456;49.956;20.004;2022-10-16T04:55:07;98658.27;;;11.56;79.41
56568;BME280;42456;49.956;20.004;2022-10-16T04:57:33;98666.45;;;11.54;79.30
56568;BME280;42456;49.956;20.004;2022-10-16T04:59:59;98668.07;;;11.46;79.30
56568;BME280;42456;49.956;20.004;2022-10-16T05:02:26;98668.07;;;11.46;79.30
56568;BME280;42456;49.956;20.004;2022-10-16T05:04:52;98672.77;;;11.43;79.20
56568;BME280;42456;49.956;20.004;2022-10-16T05:07:18;98674.53;;;11.39;79.32
56568;BME280;42456;49.956;20.004;2022-10-16T05:09:45;98675.72;;;11.35;79.29
56568;BME280;42456;49.956;20.004;2022-10-16T05:12:11;98661.61;;;11.24;79.24
56568;BME280;42456;49.956;20.004;2022-10-16T05:14:37;98667.44;;;11.26;79.45
56568;BME280;42456;49.956;20.004;2022-10-16T05:17:04;98667.44;;;11.26;79.45
56568;BME280;42456;49.956;20.004;2022-10-16T05:19:30;98668.02;;;11.25;79.51
56568;BME280;42456;49.956;20.004;2022-10-16T05:21:56;98668.34;;;11.24;79.55
56568;BME280;42456;49.956;20.004;2022-10-16T05:24:23;98663.50;;;11.23;79.54
56568;BME280;42456;49.956;20.004;2022-10-16T05:26:50;98667.77;;;11.24;79.60
56568;BME280;42456;49.956;20.004;2022-10-16T05:29:16;98669.91;;;11.25;79.64
56568;BME280;42456;49.956;20.004;2022-10-16T05:31:43;98674.42;;;11.27;79.63
56568;BME280;42456;49.956;20.004;2022-10-16T05:34:09;98680.25;;;11.29;79.79
56568;BME280;42456;49.956;20.004;2022-10-16T05:36:35;98682.63;;;11.30;79.64
56568;BME280;42456;49.956;20.004;2022-10-16T05:39:02;98687.69;;;11.32;79.68
56568;BME280;42456;49.956;20.004;2022-10-16T05:41:29;98691.34;;;11.36;79.53
56568;BME280;42456;49.956;20.004;2022-10-16T05:43:55;98692.58;;;11.38;79.46
56568;BME280;42456;49.956;20.004;2022-10-16T05:46:21;98696.77;;;11.42;79.49
56568;BME280;42456;49.956;20.004;2022-10-16T05:48:48;98693.39;;;11.54;79.41
56568;BME280;42456;49.956;20.004;2022-10-16T05:51:14;98693.39;;;11.54;79.41
56568;BME280;42456;49.956;20.004;2022-10-16T05:53:40;98697.55;;;11.66;79.57
56568;BME280;42456;49.956;20.004;2022-10-16T05:56:09;98697.60;;;11.72;79.47
56568;BME280;42456;49.956;20.004;2022-10-16T05:58:37;98698.45;;;11.78;79.33
56568;BME280;42456;49.956;20.004;2022-10-16T06:01:09;98689.94;;;11.82;79.27
56568;BME280;42456;49.956;20.004;2022-10-16T06:03:36;98692.20;;;11.86;79.21
56568;BME280;42456;49.956;20.004;2022-10-16T06:06:15;98692.02;;;11.91;79.17
56568;BME280;42456;49.956;20.004;2022-10-16T06:08:40;98696.66;;;11.97;79.12
56568;BME280;42456;49.956;20.004;2022-10-16T06:11:10;98704.34;;;12.01;79.07
56568;BME280;42456;49.956;20.004;2022-10-16T06:13:45;98701.20;;;12.05;79.18
56568;BME280;42456;49.956;20.004;2022-10-16T06:16:16;98709.01;;;12.12;79.21
56568;BME280;42456;49.956;20.004;2022-10-16T06:18:43;98708.25;;;12.18;79.19
56568;BME280;42456;49.956;20.004;2022-10-16T06:21:16;98713.13;;;12.24;79.26
56568;BME280;42456;49.956;20.004;2022-10-16T06:23:43;98725.77;;;12.32;79.25
56568;BME280;42456;49.956;20.004;2022-10-16T06:26:13;98722.45;;;12.41;79.32
56568;BME280;42456;49.956;20.004;2022-10-16T06:28:41;98729.91;;;12.50;79.31
56568;BME280;42456;49.956;20.004;2022-10-16T06:31:09;98728.95;;;12.61;79.25
56568;BME280;42456;49.956;20.004;2022-10-16T06:33:37;98731.59;;;12.75;79.25
56568;BME280;42456;49.956;20.004;2022-10-16T06:36:13;98738.39;;;12.87;79.22
56568;BME280;42456;49.956;20.004;2022-10-16T06:38:42;98739.23;;;13.00;79.06
56568;BME280;42456;49.956;20.004;2022-10-16T06:41:14;98751.22;;;13.17;78.99
56568;BME280;42456;49.956;20.004;2022-10-16T06:43:42;98752.41;;;13.34;78.88
56568;BME280;42456;49.956;20.004;2022-10-16T06:46:12;98755.69;;;13.52;78.62
56568;BME280;42456;49.956;20.004;2022-10-16T06:48:39;98754.82;;;13.72;78.53
56568;BME280;42456;49.956;20.004;2022-10-16T06:51:12;98755.04;;;13.91;78.28
56568;BME280;42456;49.956;20.004;2022-10-16T06:53:43;98766.65;;;14.09;77.99
56568;BME280;42456;49.956;20.004;2022-10-16T06:56:14;98767.43;;;14.28;77.64
56568;BME280;42456;49.956;20.004;2022-10-16T06:58:46;98772.39;;;14.44;77.08
56568;BME280;42456;49.956;20.004;2022-10-16T07:01:14;98780.47;;;14.62;76.73
56568;BME280;42456;49.956;20.004;2022-10-16T07:03:43;98777.04;;;14.77;76.20
56568;BME280;42456;49.956;20.004;2022-10-16T07:06:13;98778.56;;;14.90;75.75
56568;BME280;42456;49.956;20.004;2022-10-16T07:08:42;98782.02;;;15.02;75.10
56568;BME280;42456;49.956;20.004;2022-10-16T07:11:12;98773.60;;;15.13;74.84
56568;BME280;42456;49.956;20.004;2022-10-16T07:13:42;98782.13;;;15.28;74.33
56568;BME280;42456;49.956;20.004;2022-10-16T07:16:11;98786.02;;;15.42;74.00
56568;BME280;42456;49.956;20.004;2022-10-16T07:18:42;98779.79;;;15.63;73.94
56568;BME280;42456;49.956;20.004;2022-10-16T07:21:12;98773.05;;;15.88;73.60
56568;BME280;42456;49.956;20.004;2022-10-16T07:23:40;98765.77;;;16.08;72.94
56568;BME280;42456;49.956;20.004;2022-10-16T07:26:08;98768.81;;;16.22;72.09
56568;BME280;42456;49.956;20.004;2022-10-16T07:28:35;98772.06;;;16.37;71.53
56568;BME280;42456;49.956;20.004;2022-10-16T07:31:03;98775.43;;;16.55;70.95
56568;BME280;42456;49.956;20.004;2022-10-16T07:33:31;98775.50;;;16.68;70.26
56568;BME280;42456;49.956;20.004;2022-10-16T07:35:58;98777.38;;;16.83;69.79
56568;BME280;42456;49.956;20.004;2022-10-16T07:38:25;98772.72;;;16.93;69.09
56568;BME280;42456;49.956;20.004;2022-10-16T07:41:02;98768.86;;;17.14;68.81
56568;BME280;42456;49.956;20.004;2022-10-16T07:43:30;98780.34;;;17.36;68.28
56568;BME280;42456;49.956;20.004;2022-10-16T07:45:57;98777.18;;;17.62;67.80
56568;BME280;42456;49.956;20.004;2022-10-16T07:48:26;98777.18;;;17.85;66.94
56568;BME280;42456;49.956;20.004;2022-10-16T07:51:00;98772.21;;;18.03;66.59
56568;BME280;42456;49.956;20.004;2022-10-16T07:53:28;98779.81;;;18.17;65.24
56568;BME280;42456;49.956;20.004;2022-10-16T07:56:00;98774.36;;;18.30;65.46
56568;BME280;42456;49.956;20.004;2022-10-16T07:58:28;98773.98;;;18.41;64.78
56568;BME280;42456;49.956;20.004;2022-10-16T08:00:55;98770.98;;;18.49;64.25
56568;BME280;42456;49.956;20.004;2022-10-16T08:03:23;98781.20;;;18.56;64.00
56568;BME280;42456;49.956;20.004;2022-10-16T08:05:50;98791.41;;;18.62;63.62
56568;BME280;42456;49.956;20.004;2022-10-16T08:08:17;98787.98;;;18.69;62.29
56568;BME280;42456;49.956;20.004;2022-10-16T08:10:45;98795.64;;;18.73;62.30
56568;BME280;42456;49.956;20.004;2022-10-16T08:13:11;98797.03;;;18.77;62.21
56568;BME280;42456;49.956;20.004;2022-10-16T08:15:39;98798.88;;;18.82;62.02
56568;BME280;42456;49.956;20.004;2022-10-16T08:18:05;98801.86;;;18.87;61.88
56568;BME280;42456;49.956;20.004;2022-10-16T08:20:33;98798.16;;;18.89;61.19
56568;BME280;42456;49.956;20.004;2022-10-16T08:23:00;98803.25;;;18.90;60.91
56568;BME280;42456;49.956;20.004;2022-10-16T08:25:27;98795.30;;;18.91;61.31
56568;BME280;42456;49.956;20.004;2022-10-16T08:27:54;98806.83;;;18.94;61.21
56568;BME280;42456;49.956;20.004;2022-10-16T08:30:23;98803.50;;;18.95;60.35
56568;BME280;42456;49.956;20.004;2022-10-16T08:32:50;98808.92;;;18.91;60.24
56568;BME280;42456;49.956;20.004;2022-10-16T08:35:17;98814.58;;;18.92;60.51
56568;BME280;42456;49.956;20.004;2022-10-16T08:37:43;98816.56;;;18.95;60.47
56568;BME280;42456;49.956;20.004;2022-10-16T08:40:22;98810.37;;;18.98;60.46
56568;BME280;42456;49.956;20.004;2022-10-16T08:51:27;98814.72;;;19.19;60.25
56568;BME280;42456;49.956;20.004;2022-10-16T08:54:08;98820.42;;;19.24;60.13
56568;BME280;42456;49.956;20.004;2022-10-16T08:56:38;98816.86;;;19.33;60.31
56568;BME280;42456;49.956;20.004;2022-10-16T08:59:06;98820.36;;;19.50;60.22
56568;BME280;42456;49.956;20.004;2022-10-16T09:01:47;98819.30;;;19.61;59.80
56568;BME280;42456;49.956;20.004;2022-10-16T09:07:04;98823.80;;;19.80;59.33
56568;BME280;42456;49.956;20.004;2022-10-16T09:10:04;98828.04;;;19.97;59.54
56568;BME280;42456;49.956;20.004;2022-10-16T09:15:12;98827.65;;;20.42;57.61
56568;BME280;42456;49.956;20.004;2022-10-16T09:23:29;98836.25;;;20.75;56.22
56568;BME280;42456;49.956;20.004;2022-10-16T09:25:59;98831.00;;;20.80;56.02
56568;BME280;42456;49.956;20.004;2022-10-16T09:28:25;98838.03;;;20.81;55.84
56568;BME280;42456;49.956;20.004;2022-10-16T09:30:52;98837.45;;;20.81;55.83
56568;BME280;42456;49.956;20.004;2022-10-16T09:33:28;98840.19;;;20.81;55.66
56568;BME280;42456;49.956;20.004;2022-10-16T09:35:56;98837.65;;;20.79;55.19
56568;BME280;42456;49.956;20.004;2022-10-16T09:38:33;98835.08;;;20.73;54.97
56568;BME280;42456;49.956;20.004;2022-10-16T09:41:03;98843.63;;;20.68;55.18
56568;BME280;42456;49.956;20.004;2022-10-16T09:43:48;98854.75;;;20.65;54.77
56568;BME280;42456;49.956;20.004;2022-10-16T09:46:30;98847.50;;;20.63;55.13
56568;BME280;42456;49.956;20.004;2022-10-16T09:49:01;98854.75;;;20.65;55.37
56568;BME280;42456;49.956;20.004;2022-10-16T09:51:32;98851.41;;;20.66;54.66
56568;BME280;42456;49.956;20.004;2022-10-16T09:54:12;98853.54;;;20.63;55.02
56568;BME280;42456;49.956;20.004;2022-10-16T09:56:38;98855.51;;;20.66;55.11
56568;BME280;42456;49.956;20.004;2022-10-16T09:59:16;98852.05;;;20.72;55.27
56568;BME280;42456;49.956;20.004;2022-10-16T10:01:49;98855.42;;;20.82;54.76
56568;BME280;42456;49.956;20.004;2022-10-16T10:04:18;98850.97;;;20.87;54.14
56568;BME280;42456;49.956;20.004;2022-10-16T10:06:53;98847.53;;;20.97;53.94
56568;BME280;42456;49.956;20.004;2022-10-16T10:09:26;98851.52;;;21.14;53.42
56568;BME280;42456;49.956;20.004;2022-10-16T10:12:02;98845.75;;;21.33;53.25
56568;BME280;42456;49.956;20.004;2022-10-16T10:14:44;98849.31;;;21.47;52.60
56568;BME280;42456;49.956;20.004;2022-10-16T10:17:23;98854.25;;;21.65;52.57
56568;BME280;42456;49.956;20.004;2022-10-16T10:25:15;98851.44;;;22.17;52.78
56568;BME280;42456;49.956;20.004;2022-10-16T10:36:41;98849.47;;;22.42;50.95
56568;BME280;42456;49.956;20.004;2022-10-16T10:51:04;98846.75;;;22.53;50.39
56568;BME280;42456;49.956;20.004;2022-10-16T10:53:55;98836.16;;;22.62;50.35
56568;BME280;42456;49.956;20.004;2022-10-16T11:07:41;98835.16;;;22.46;49.26
56568;BME280;42456;49.956;20.004;2022-10-16T11:10:21;98834.81;;;22.55;48.74
56568;BME280;42456;49.956;20.004;2022-10-16T11:13:06;98830.88;;;22.56;48.49
56568;BME280;42456;49.956;20.004;2022-10-16T11:15:32;98834.40;;;22.63;49.09
56568;BME280;42456;49.956;20.004;2022-10-16T11:26:26;98830.81;;;22.84;47.12
56568;BME280;42456;49.956;20.004;2022-10-16T11:28:55;98824.75;;;22.88;47.15
56568;BME280;42456;49.956;20.004;2022-10-16T11:31:37;98832.38;;;22.92;47.16
56568;BME280;42456;49.956;20.004;2022-10-16T11:34:12;98825.48;;;22.99;47.33
56568;BME280;42456;49.956;20.004;2022-10-16T11:39:36;98832.48;;;23.14;47.45
56568;BME280;42456;49.956;20.004;2022-10-16T11:42:13;98831.88;;;23.18;46.68
56568;BME280;42456;49.956;20.004;2022-10-16T11:55:57;98837.58;;;23.12;46.24
56568;BME280;42456;49.956;20.004;2022-10-16T11:59:02;98833.47;;;23.12;46.45
56568;BME280;42456;49.956;20.004;2022-10-16T12:07:03;98834.62;;;23.18;47.09
56568;BME280;42456;49.956;20.004;2022-10-16T12:09:31;98841.52;;;23.11;46.66
56568;BME280;42456;49.956;20.004;2022-10-16T12:11:58;98842.73;;;23.03;46.49
56568;BME280;42456;49.956;20.004;2022-10-16T12:14:34;98838.62;;;22.99;46.94
56568;BME280;42456;49.956;20.004;2022-10-16T12:17:23;98844.72;;;22.95;46.92
56568;BME280;42456;49.956;20.004;2022-10-16T12:20:00;98842.95;;;22.90;47.02
56568;BME280;42456;49.956;20.004;2022-10-16T12:22:29;98850.63;;;22.83;47.17
56568;BME280;42456;49.956;20.004;2022-10-16T12:24:57;98852.39;;;22.78;47.28
56568;BME280;42456;49.956;20.004;2022-10-16T12:27:31;98856.31;;;22.74;47.46
56568;BME280;42456;49.956;20.004;2022-10-16T12:30:04;98856.92;;;22.70;47.72
56568;BME280;42456;49.956;20.004;2022-10-16T12:32:36;98856.15;;;22.62;47.85
56568;BME280;42456;49.956;20.004;2022-10-16T12:35:17;98855.74;;;22.57;48.19
56568;BME280;42456;49.956;20.004;2022-10-16T12:37:49;98859.09;;;22.56;48.43
56568;BME280;42456;49.956;20.004;2022-10-16T12:42:51;98849.27;;;22.69;49.49
56568;BME280;42456;49.956;20.004;2022-10-16T12:45:32;98852.39;;;22.82;49.68
56568;BME280;42456;49.956;20.004;2022-10-16T12:48:01;98853.13;;;22.93;49.31
56568;BME280;42456;49.956;20.004;2022-10-16T12:50:36;98853.09;;;23.03;48.89
56568;BME280;42456;49.956;20.004;2022-10-16T12:58:44;98848.98;;;23.10;49.21
56568;BME280;42456;49.956;20.004;2022-10-16T13:04:14;98858.98;;;23.05;48.38
56568;BME280;42456;49.956;20.004;2022-10-16T13:06:53;98864.28;;;22.97;48.42
56568;BME280;42456;49.956;20.004;2022-10-16T13:09:55;98866.48;;;22.91;48.37
56568;BME280;42456;49.956;20.004;2022-10-16T13:18:18;98871.40;;;22.74;49.66
56568;BME280;42456;49.956;20.004;2022-10-16T13:29:03;98870.44;;;22.51;49.92
56568;BME280;42456;49.956;20.004;2022-10-16T13:31:30;98877.11;;;22.50;49.97
56568;BME280;42456;49.956;20.004;2022-10-16T13:33:59;98880.00;;;22.48;50.13
56568;BME280;42456;49.956;20.004;2022-10-16T13:36:34;98880.41;;;22.43;50.39
56568;BME280;42456;49.956;20.004;2022-10-16T13:39:13;98891.35;;;22.36;50.20
56568;BME280;42456;49.956;20.004;2022-10-16T13:41:42;98895.28;;;22.28;50.18
56568;BME280;42456;49.956;20.004;2022-10-16T13:44:20;98893.13;;;22.20;50.63
56568;BME280;42456;49.956;20.004;2022-10-16T13:46:47;98901.33;;;22.16;50.91
56568;BME280;42456;49.956;20.004;2022-10-16T13:49:17;98904.65;;;22.16;51.15
56568;BME280;42456;49.956;20.004;2022-10-16T13:51:59;98898.00;;;22.13;51.26
56568;BME280;42456;49.956;20.004;2022-10-16T13:54:27;98903.30;;;22.12;51.47
56568;BME280;42456;49.956;20.004;2022-10-16T13:56:54;98900.54;;;22.09;51.70
56568;BME280;42456;49.956;20.004;2022-10-16T13:59:26;98895.66;;;22.05;51.81
56568;BME280;42456;49.956;20.004;2022-10-16T14:01:57;98901.50;;;22.00;52.25
56568;BME280;42456;49.956;20.004;2022-10-16T14:04:25;98908.12;;;21.92;52.32
56568;BME280;42456;49.956;20.004;2022-10-16T14:06:55;98906.94;;;21.86;52.23
56568;BME280;42456;49.956;20.004;2022-10-16T14:09:24;98908.48;;;21.80;52.38
56568;BME280;42456;49.956;20.004;2022-10-16T14:12:07;98912.77;;;21.74;52.66
56568;BME280;42456;49.956;20.004;2022-10-16T14:14:41;98920.94;;;21.67;52.88
56568;BME280;42456;49.956;20.004;2022-10-16T14:17:26;98915.04;;;21.58;53.17
56568;BME280;42456;49.956;20.004;2022-10-16T14:19:56;98916.58;;;21.52;53.13
56568;BME280;42456;49.956;20.004;2022-10-16T14:22:32;98912.05;;;21.43;53.37
56568;BME280;42456;49.956;20.004;2022-10-16T14:28:04;98917.28;;;21.31;53.71
56568;BME280;42456;49.956;20.004;2022-10-16T14:30:57;98915.85;;;21.24;54.08
56568;BME280;42456;49.956;20.004;2022-10-16T14:36:05;98913.06;;;21.14;54.79
56568;BME280;42456;49.956;20.004;2022-10-16T14:38:34;98919.30;;;21.11;55.20
56568;BME280;42456;49.956;20.004;2022-10-16T14:41:01;98914.97;;;21.06;55.33
56568;BME280;42456;49.956;20.004;2022-10-16T14:43:41;98915.55;;;21.02;55.69
56568;BME280;42456;49.956;20.004;2022-10-16T14:46:14;98916.50;;;20.97;55.40
56568;BME280;42456;49.956;20.004;2022-10-16T14:48:47;98909.98;;;20.92;55.80
56568;BME280;42456;49.956;20.004;2022-10-16T14:51:17;98921.67;;;20.89;55.75
56568;BME280;42456;49.956;20.004;2022-10-16T14:53:45;98922.44;;;20.86;55.90
56568;BME280;42456;49.956;20.004;2022-10-16T14:56:20;98920.27;;;20.82;56.08
56568;BME280;42456;49.956;20.004;2022-10-16T14:58:53;98910.06;;;20.75;56.28
56568;BME280;42456;49.956;20.004;2022-10-16T15:01:16;98912.15;;;20.69;56.51
56568;BME280;42456;49.956;20.004;2022-10-16T15:03:44;98906.27;;;20.63;56.53
56568;BME280;42456;49.956;20.004;2022-10-16T15:06:14;98900.53;;;20.55;56.59
56568;BME280;42456;49.956;20.004;2022-10-16T15:08:41;98906.33;;;20.46;56.79
56568;BME280;42456;49.956;20.004;2022-10-16T15:11:11;98911.55;;;20.38;56.95
56568;BME280;42456;49.956;20.004;2022-10-16T15:13:39;98913.20;;;20.30;56.98
56568;BME280;42456;49.956;20.004;2022-10-16T15:16:11;98925.45;;;20.23;57.33
56568;BME280;42456;49.956;20.004;2022-10-16T15:18:38;98932.59;;;20.14;57.51
56568;BME280;42456;49.956;20.004;2022-10-16T15:21:05;98923.09;;;20.05;57.79